sensor_id;sensor_type;location;lat;lon;timestamp;P1;durP1;ratioP1;P2;durP2;ratioP2
21152;SDS011;10734;44.792;20.482;2023-04-24T00:00:21;9.95;;;4.07;;
21152;SDS011;10734;44.792;20.482;2023-04-24T00:02:48;8.27;;;3.47;;
21152;SDS011;10734;44.792;20.482;2023-04-24T00:05:15;8.38;;;2.95;;
21152;SDS011;10734;44.792;20.482;2023-04-24T00:07:43;7.65;;;3.53;;
21152;SDS011;10734;44.792;20.482;2023-04-24T00:10:10;7.20;;;3.47;;
21152;SDS011;10734;44.792;20.482;2023-04-24T00:12:37;6.88;;;4.07;;
21152;SDS011;10734;44.792;20.482;2023-04-24T00:15:04;7.40;;;3.65;;
21152;SDS011;10734;44.792;20.482;2023-04-24T00:17:31;7.43;;;3.88;;
21152;SDS011;10734;44.792;20.482;2023-04-24T00:19:57;5.53;;;3.53;;
21152;SDS011;10734;44.792;20.482;2023-04-24T00:22:25;15.02;;;3.50;;
21152;SDS011;10734;44.792;20.482;2023-04-24T00:24:52;13.30;;;4.68;;
21152;SDS011;10734;44.792;20.482;2023-04-24T00:27:19;15.70;;;4.07;;
21152;SDS011;10734;44.792;20.482;2023-04-24T00:29:45;5.28;;;3.67;;
21152;SDS011;10734;44.792;20.482;2023-04-24T00:32:12;7.88;;;4.03;;
21152;SDS011;10734;44.792;20.482;2023-04-24T00:34:39;9.13;;;3.90;;
21152;SDS011;10734;44.792;20.482;2023-04-24T00:37:05;7.40;;;4.00;;
21152;SDS011;10734;44.792;20.482;2023-04-24T00:39:32;8.55;;;3.90;;
21152;SDS011;10734;44.792;20.482;2023-04-24T00:41:59;11.05;;;3.88;;
21152;SDS011;10734;44.792;20.482;2023-04-24T00:44:25;7.07;;;3.60;;
21152;SDS011;10734;44.792;20.482;2023-04-24T00:46:52;9.38;;;4.35;;
21152;SDS011;10734;44.792;20.482;2023-04-24T00:49:21;4.38;;;3.47;;
21152;SDS011;10734;44.792;20.482;2023-04-24T00:51:48;5.57;;;3.70;;
21152;SDS011;10734;44.792;20.482;2023-04-24T00:54:15;6.25;;;3.78;;
21152;SDS011;10734;44.792;20.482;2023-04-24T00:56:42;9.50;;;4.00;;
21152;SDS011;10734;44.792;20.482;2023-04-24T00:59:11;5.47;;;3.63;;
21152;SDS011;10734;44.792;20.482;2023-04-24T01:01:38;10.73;;;3.88;;
21152;SDS011;10734;44.792;20.482;2023-04-24T01:04:08;6.18;;;3.45;;
21152;SDS011;10734;44.792;20.482;2023-04-24T01:06:36;11.77;;;4.10;;
21152;SDS011;10734;44.792;20.482;2023-04-24T01:09:04;9.38;;;4.07;;
21152;SDS011;10734;44.792;20.482;2023-04-24T01:11:31;7.30;;;3.88;;
21152;SDS011;10734;44.792;20.482;2023-04-24T01:13:58;6.80;;;4.10;;
21152;SDS011;10734;44.792;20.482;2023-04-24T01:16:25;8.15;;;4.07;;
21152;SDS011;10734;44.792;20.482;2023-04-24T01:18:52;6.03;;;3.67;;
21152;SDS011;10734;44.792;20.482;2023-04-24T01:21:18;5.90;;;4.15;;
21152;SDS011;10734;44.792;20.482;2023-04-24T01:23:46;8.52;;;4.28;;
21152;SDS011;10734;44.792;20.482;2023-04-24T01:26:14;7.13;;;4.40;;
21152;SDS011;10734;44.792;20.482;2023-04-24T01:28:41;8.80;;;4.40;;
21152;SDS011;10734;44.792;20.482;2023-04-24T01:31:08;9.43;;;4.93;;
21152;SDS011;10734;44.792;20.482;2023-04-24T01:33:34;7.40;;;4.32;;
21152;SDS011;10734;44.792;20.482;2023-04-24T01:36:01;12.75;;;4.75;;
21152;SDS011;10734;44.792;20.482;2023-04-24T01:38:27;8.77;;;4.55;;
21152;SDS011;10734;44.792;20.482;2023-04-24T01:40:54;8.15;;;4.93;;
21152;SDS011;10734;44.792;20.482;2023-04-24T01:43:20;8.05;;;4.53;;
21152;SDS011;10734;44.792;20.482;2023-04-24T01:45:47;11.60;;;4.55;;
21152;SDS011;10734;44.792;20.482;2023-04-24T01:48:14;7.47;;;4.82;;
21152;SDS011;10734;44.792;20.482;2023-04-24T01:50:41;9.57;;;4.28;;
21152;SDS011;10734;44.792;20.482;2023-04-24T01:53:07;9.32;;;5.35;;
21152;SDS011;10734;44.792;20.482;2023-04-24T01:55:34;11.65;;;5.50;;
21152;SDS011;10734;44.792;20.482;2023-04-24T01:58:00;10.50;;;5.50;;
21152;SDS011;10734;44.792;20.482;2023-04-24T02:00:27;13.23;;;5.90;;
21152;SDS011;10734;44.792;20.482;2023-04-24T02:02:54;15.65;;;6.28;;
21152;SDS011;10734;44.792;20.482;2023-04-24T02:05:21;10.63;;;6.05;;
21152;SDS011;10734;44.792;20.482;2023-04-24T02:07:47;16.95;;;6.15;;
21152;SDS011;10734;44.792;20.482;2023-04-24T02:10:14;15.80;;;5.57;;
21152;SDS011;10734;44.792;20.482;2023-04-24T02:12:40;13.70;;;5.80;;
21152;SDS011;10734;44.792;20.482;2023-04-24T02:15:07;15.13;;;6.30;;
21152;SDS011;10734;44.792;20.482;2023-04-24T02:17:34;7.85;;;5.25;;
21152;SDS011;10734;44.792;20.482;2023-04-24T02:20:00;17.30;;;6.45;;
21152;SDS011;10734;44.792;20.482;2023-04-24T02:22:27;16.25;;;6.50;;
21152;SDS011;10734;44.792;20.482;2023-04-24T02:24:53;13.20;;;6.18;;
21152;SDS011;10734;44.792;20.482;2023-04-24T02:27:20;16.75;;;6.97;;
21152;SDS011;10734;44.792;20.482;2023-04-24T02:29:46;12.98;;;6.45;;
21152;SDS011;10734;44.792;20.482;2023-04-24T02:32:13;19.45;;;7.07;;
21152;SDS011;10734;44.792;20.482;2023-04-24T02:34:42;8.98;;;5.72;;
21152;SDS011;10734;44.792;20.482;2023-04-24T02:37:08;12.40;;;6.15;;
21152;SDS011;10734;44.792;20.482;2023-04-24T02:39:35;12.13;;;5.85;;
21152;SDS011;10734;44.792;20.482;2023-04-24T02:42:01;13.02;;;6.30;;
21152;SDS011;10734;44.792;20.482;2023-04-24T02:44:28;11.38;;;6.15;;
21152;SDS011;10734;44.792;20.482;2023-04-24T02:46:54;10.70;;;5.80;;
21152;SDS011;10734;44.792;20.482;2023-04-24T02:49:21;14.10;;;6.25;;
21152;SDS011;10734;44.792;20.482;2023-04-24T02:51:47;15.32;;;6.07;;
21152;SDS011;10734;44.792;20.482;2023-04-24T02:54:14;7.72;;;5.65;;
21152;SDS011;10734;44.792;20.482;2023-04-24T02:56:41;13.48;;;6.00;;
21152;SDS011;10734;44.792;20.482;2023-04-24T02:59:07;11.57;;;5.95;;
21152;SDS011;10734;44.792;20.482;2023-04-24T03:01:34;8.65;;;5.63;;
21152;SDS011;10734;44.792;20.482;2023-04-24T03:04:01;9.05;;;5.68;;
21152;SDS011;10734;44.792;20.482;2023-04-24T03:06:28;9.65;;;5.10;;
21152;SDS011;10734;44.792;20.482;2023-04-24T03:08:55;11.77;;;5.68;;
21152;SDS011;10734;44.792;20.482;2023-04-24T03:11:21;7.07;;;5.30;;
21152;SDS011;10734;44.792;20.482;2023-04-24T03:13:48;8.50;;;5.55;;
21152;SDS011;10734;44.792;20.482;2023-04-24T03:16:14;10.68;;;5.53;;
21152;SDS011;10734;44.792;20.482;2023-04-24T03:18:41;12.65;;;5.88;;
21152;SDS011;10734;44.792;20.482;2023-04-24T03:21:07;14.15;;;5.15;;
21152;SDS011;10734;44.792;20.482;2023-04-24T03:23:34;9.20;;;5.35;;
21152;SDS011;10734;44.792;20.482;2023-04-24T03:26:00;11.00;;;5.50;;
21152;SDS011;10734;44.792;20.482;2023-04-24T03:28:28;7.10;;;4.60;;
21152;SDS011;10734;44.792;20.482;2023-04-24T03:30:55;7.97;;;5.63;;
21152;SDS011;10734;44.792;20.482;2023-04-24T03:33:21;7.15;;;4.85;;
21152;SDS011;10734;44.792;20.482;2023-04-24T03:35:48;15.20;;;5.50;;
21152;SDS011;10734;44.792;20.482;2023-04-24T03:38:14;11.15;;;5.50;;
21152;SDS011;10734;44.792;20.482;2023-04-24T03:40:41;10.38;;;5.68;;
21152;SDS011;10734;44.792;20.482;2023-04-24T03:43:07;11.60;;;5.90;;
21152;SDS011;10734;44.792;20.482;2023-04-24T03:45:34;13.95;;;5.75;;
21152;SDS011;10734;44.792;20.482;2023-04-24T03:48:01;12.52;;;6.10;;
21152;SDS011;10734;44.792;20.482;2023-04-24T03:50:27;9.00;;;5.50;;
21152;SDS011;10734;44.792;20.482;2023-04-24T03:52:55;7.90;;;4.70;;
21152;SDS011;10734;44.792;20.482;2023-04-24T03:55:22;11.80;;;5.60;;
21152;SDS011;10734;44.792;20.482;2023-04-24T03:57:48;9.57;;;5.43;;
21152;SDS011;10734;44.792;20.482;2023-04-24T04:00:15;11.00;;;4.78;;
21152;SDS011;10734;44.792;20.482;2023-04-24T04:02:42;11.88;;;5.70;;
21152;SDS011;10734;44.792;20.482;2023-04-24T04:05:09;8.70;;;5.72;;
21152;SDS011;10734;44.792;20.482;2023-04-24T04:07:35;9.93;;;5.32;;
21152;SDS011;10734;44.792;20.482;2023-04-24T04:10:02;11.88;;;4.90;;
21152;SDS011;10734;44.792;20.482;2023-04-24T04:12:29;12.32;;;5.20;;
21152;SDS011;10734;44.792;20.482;2023-04-24T04:14:56;9.65;;;5.50;;
21152;SDS011;10734;44.792;20.482;2023-04-24T04:17:22;21.63;;;11.63;;
21152;SDS011;10734;44.792;20.482;2023-04-24T04:19:49;15.63;;;9.77;;
21152;SDS011;10734;44.792;20.482;2023-04-24T04:22:15;10.88;;;6.40;;
21152;SDS011;10734;44.792;20.482;2023-04-24T04:24:42;15.45;;;7.80;;
21152;SDS011;10734;44.792;20.482;2023-04-24T04:27:09;17.35;;;6.85;;
21152;SDS011;10734;44.792;20.482;2023-04-24T04:29:35;12.75;;;7.28;;
21152;SDS011;10734;44.792;20.482;2023-04-24T04:32:02;17.58;;;9.02;;
21152;SDS011;10734;44.792;20.482;2023-04-24T04:34:29;13.95;;;7.40;;
21152;SDS011;10734;44.792;20.482;2023-04-24T04:36:55;11.73;;;7.68;;
21152;SDS011;10734;44.792;20.482;2023-04-24T04:39:22;15.65;;;7.35;;
21152;SDS011;10734;44.792;20.482;2023-04-24T04:41:51;12.88;;;7.72;;
21152;SDS011;10734;44.792;20.482;2023-04-24T04:44:19;13.23;;;7.03;;
21152;SDS011;10734;44.792;20.482;2023-04-24T04:46:45;12.45;;;6.57;;
21152;SDS011;10734;44.792;20.482;2023-04-24T04:49:12;9.55;;;6.45;;
21152;SDS011;10734;44.792;20.482;2023-04-24T04:51:39;11.00;;;5.90;;
21152;SDS011;10734;44.792;20.482;2023-04-24T04:54:08;12.02;;;5.63;;
21152;SDS011;10734;44.792;20.482;2023-04-24T04:56:34;8.80;;;5.28;;
21152;SDS011;10734;44.792;20.482;2023-04-24T04:59:01;10.60;;;5.53;;
21152;SDS011;10734;44.792;20.482;2023-04-24T05:01:27;11.80;;;6.80;;
21152;SDS011;10734;44.792;20.482;2023-04-24T05:03:54;8.90;;;5.20;;
21152;SDS011;10734;44.792;20.482;2023-04-24T05:06:21;13.38;;;6.18;;
21152;SDS011;10734;44.792;20.482;2023-04-24T05:08:49;10.52;;;5.88;;
21152;SDS011;10734;44.792;20.482;2023-04-24T05:11:17;12.45;;;5.63;;
21152;SDS011;10734;44.792;20.482;2023-04-24T05:13:44;7.32;;;5.15;;
21152;SDS011;10734;44.792;20.482;2023-04-24T05:16:10;12.65;;;4.63;;
21152;SDS011;10734;44.792;20.482;2023-04-24T05:18:37;8.63;;;4.97;;
21152;SDS011;10734;44.792;20.482;2023-04-24T05:21:03;10.18;;;5.25;;
21152;SDS011;10734;44.792;20.482;2023-04-24T05:23:30;12.27;;;5.47;;
21152;SDS011;10734;44.792;20.482;2023-04-24T05:25:57;8.10;;;5.35;;
21152;SDS011;10734;44.792;20.482;2023-04-24T05:28:24;9.73;;;5.00;;
21152;SDS011;10734;44.792;20.482;2023-04-24T05:30:54;12.45;;;5.65;;
21152;SDS011;10734;44.792;20.482;2023-04-24T05:33:22;12.55;;;6.00;;
21152;SDS011;10734;44.792;20.482;2023-04-24T05:35:48;20.27;;;6.22;;
21152;SDS011;10734;44.792;20.482;2023-04-24T05:38:15;11.50;;;6.38;;
21152;SDS011;10734;44.792;20.482;2023-04-24T05:40:44;17.35;;;7.10;;
21152;SDS011;10734;44.792;20.482;2023-04-24T05:43:10;13.60;;;6.60;;
21152;SDS011;10734;44.792;20.482;2023-04-24T05:45:37;14.30;;;7.22;;
21152;SDS011;10734;44.792;20.482;2023-04-24T05:48:04;13.45;;;7.53;;
21152;SDS011;10734;44.792;20.482;2023-04-24T05:50:31;13.23;;;7.60;;
21152;SDS011;10734;44.792;20.482;2023-04-24T05:53:00;12.25;;;7.68;;
21152;SDS011;10734;44.792;20.482;2023-04-24T05:55:28;14.80;;;7.60;;
21152;SDS011;10734;44.792;20.482;2023-04-24T05:57:54;13.95;;;7.68;;
21152;SDS011;10734;44.792;20.482;2023-04-24T06:00:21;11.60;;;7.80;;
21152;SDS011;10734;44.792;20.482;2023-04-24T06:02:48;10.38;;;7.00;;
21152;SDS011;10734;44.792;20.482;2023-04-24T06:05:15;14.50;;;7.28;;
21152;SDS011;10734;44.792;20.482;2023-04-24T06:07:42;13.25;;;7.78;;
21152;SDS011;10734;44.792;20.482;2023-04-24T06:10:08;16.00;;;6.88;;
21152;SDS011;10734;44.792;20.482;2023-04-24T06:12:35;10.25;;;7.63;;
21152;SDS011;10734;44.792;20.482;2023-04-24T06:15:03;17.98;;;9.73;;
21152;SDS011;10734;44.792;20.482;2023-04-24T06:17:30;15.15;;;8.40;;
21152;SDS011;10734;44.792;20.482;2023-04-24T06:19:57;11.88;;;7.93;;
21152;SDS011;10734;44.792;20.482;2023-04-24T06:22:23;12.40;;;8.30;;
21152;SDS011;10734;44.792;20.482;2023-04-24T06:24:50;13.88;;;7.82;;
21152;SDS011;10734;44.792;20.482;2023-04-24T06:27:16;12.38;;;7.43;;
21152;SDS011;10734;44.792;20.482;2023-04-24T06:29:43;16.15;;;6.88;;
21152;SDS011;10734;44.792;20.482;2023-04-24T06:32:10;13.43;;;6.97;;
21152;SDS011;10734;44.792;20.482;2023-04-24T06:34:36;12.27;;;6.88;;
21152;SDS011;10734;44.792;20.482;2023-04-24T06:37:03;11.10;;;6.47;;
21152;SDS011;10734;44.792;20.482;2023-04-24T06:39:30;14.50;;;8.23;;
21152;SDS011;10734;44.792;20.482;2023-04-24T06:41:56;15.15;;;7.75;;
21152;SDS011;10734;44.792;20.482;2023-04-24T06:44:23;16.35;;;7.25;;
21152;SDS011;10734;44.792;20.482;2023-04-24T06:46:49;11.85;;;6.95;;
21152;SDS011;10734;44.792;20.482;2023-04-24T06:49:16;9.90;;;7.28;;
21152;SDS011;10734;44.792;20.482;2023-04-24T06:51:43;13.10;;;6.47;;
21152;SDS011;10734;44.792;20.482;2023-04-24T06:54:09;8.93;;;6.78;;
21152;SDS011;10734;44.792;20.482;2023-04-24T06:56:36;12.43;;;7.40;;
21152;SDS011;10734;44.792;20.482;2023-04-24T06:59:03;15.05;;;7.18;;
21152;SDS011;10734;44.792;20.482;2023-04-24T07:01:30;13.38;;;6.82;;
21152;SDS011;10734;44.792;20.482;2023-04-24T07:03:56;15.23;;;8.00;;
21152;SDS011;10734;44.792;20.482;2023-04-24T07:06:23;17.73;;;8.20;;
21152;SDS011;10734;44.792;20.482;2023-04-24T07:08:50;13.45;;;7.57;;
21152;SDS011;10734;44.792;20.482;2023-04-24T07:11:17;11.25;;;7.28;;
21152;SDS011;10734;44.792;20.482;2023-04-24T07:13:43;14.52;;;7.72;;
21152;SDS011;10734;44.792;20.482;2023-04-24T07:16:10;11.60;;;6.85;;
21152;SDS011;10734;44.792;20.482;2023-04-24T07:18:38;10.70;;;6.85;;
21152;SDS011;10734;44.792;20.482;2023-04-24T07:21:06;16.92;;;7.70;;
21152;SDS011;10734;44.792;20.482;2023-04-24T07:23:33;11.60;;;6.75;;
21152;SDS011;10734;44.792;20.482;2023-04-24T07:26:00;16.90;;;7.53;;
21152;SDS011;10734;44.792;20.482;2023-04-24T07:28:26;11.63;;;7.10;;
21152;SDS011;10734;44.792;20.482;2023-04-24T07:30:57;13.55;;;7.18;;
21152;SDS011;10734;44.792;20.482;2023-04-24T07:33:25;13.85;;;7.50;;
21152;SDS011;10734;44.792;20.482;2023-04-24T07:35:52;10.13;;;6.68;;
21152;SDS011;10734;44.792;20.482;2023-04-24T07:38:19;12.93;;;6.78;;
21152;SDS011;10734;44.792;20.482;2023-04-24T07:40:48;12.25;;;6.70;;
21152;SDS011;10734;44.792;20.482;2023-04-24T07:43:15;10.85;;;6.60;;
21152;SDS011;10734;44.792;20.482;2023-04-24T07:45:42;11.98;;;5.85;;
21152;SDS011;10734;44.792;20.482;2023-04-24T07:48:09;12.52;;;6.60;;
21152;SDS011;10734;44.792;20.482;2023-04-24T07:50:36;12.20;;;6.50;;
21152;SDS011;10734;44.792;20.482;2023-04-24T07:53:03;12.70;;;6.25;;
21152;SDS011;10734;44.792;20.482;2023-04-24T07:55:30;10.25;;;6.63;;
21152;SDS011;10734;44.792;20.482;2023-04-24T07:57:57;10.43;;;5.88;;
21152;SDS011;10734;44.792;20.482;2023-04-24T08:00:24;9.95;;;6.15;;
21152;SDS011;10734;44.792;20.482;2023-04-24T08:02:51;15.18;;;6.05;;
21152;SDS011;10734;44.792;20.482;2023-04-24T08:05:18;9.13;;;5.95;;
21152;SDS011;10734;44.792;20.482;2023-04-24T08:07:45;11.25;;;5.38;;
21152;SDS011;10734;44.792;20.482;2023-04-24T08:10:14;12.05;;;5.53;;
21152;SDS011;10734;44.792;20.482;2023-04-24T08:12:41;8.48;;;5.20;;
21152;SDS011;10734;44.792;20.482;2023-04-24T08:15:08;9.13;;;5.45;;
21152;SDS011;10734;44.792;20.482;2023-04-24T08:17:35;17.67;;;5.20;;
21152;SDS011;10734;44.792;20.482;2023-04-24T08:20:03;10.27;;;5.65;;
21152;SDS011;10734;44.792;20.482;2023-04-24T08:22:31;13.35;;;5.32;;
21152;SDS011;10734;44.792;20.482;2023-04-24T08:24:59;11.35;;;5.63;;
21152;SDS011;10734;44.792;20.482;2023-04-24T08:27:26;9.77;;;5.20;;
21152;SDS011;10734;44.792;20.482;2023-04-24T08:29:53;11.05;;;5.28;;
21152;SDS011;10734;44.792;20.482;2023-04-24T08:32:21;10.93;;;5.65;;
21152;SDS011;10734;44.792;20.482;2023-04-24T08:34:47;12.75;;;5.63;;
21152;SDS011;10734;44.792;20.482;2023-04-24T08:37:15;14.25;;;5.53;;
21152;SDS011;10734;44.792;20.482;2023-04-24T08:39:42;13.40;;;5.93;;
21152;SDS011;10734;44.792;20.482;2023-04-24T08:42:09;9.85;;;6.05;;
21152;SDS011;10734;44.792;20.482;2023-04-24T08:44:38;12.75;;;5.38;;
21152;SDS011;10734;44.792;20.482;2023-04-24T08:47:05;13.20;;;5.57;;
21152;SDS011;10734;44.792;20.482;2023-04-24T08:49:34;12.88;;;6.22;;
21152;SDS011;10734;44.792;20.482;2023-04-24T08:52:03;11.35;;;6.00;;
21152;SDS011;10734;44.792;20.482;2023-04-24T08:54:31;17.10;;;6.63;;
21152;SDS011;10734;44.792;20.482;2023-04-24T08:57:00;11.52;;;6.05;;
21152;SDS011;10734;44.792;20.482;2023-04-24T08:59:28;17.38;;;6.00;;
21152;SDS011;10734;44.792;20.482;2023-04-24T09:01:55;15.65;;;6.65;;
21152;SDS011;10734;44.792;20.482;2023-04-24T09:04:23;10.10;;;6.07;;
21152;SDS011;10734;44.792;20.482;2023-04-24T09:06:52;19.75;;;7.20;;
21152;SDS011;10734;44.792;20.482;2023-04-24T09:09:22;28.13;;;6.25;;
21152;SDS011;10734;44.792;20.482;2023-04-24T09:11:50;20.00;;;7.13;;
21152;SDS011;10734;44.792;20.482;2023-04-24T09:14:21;19.87;;;6.60;;
21152;SDS011;10734;44.792;20.482;2023-04-24T09:16:50;11.63;;;6.32;;
21152;SDS011;10734;44.792;20.482;2023-04-24T09:19:17;12.05;;;7.38;;
21152;SDS011;10734;44.792;20.482;2023-04-24T09:21:47;15.10;;;7.03;;
21152;SDS011;10734;44.792;20.482;2023-04-24T09:24:15;13.13;;;6.13;;
21152;SDS011;10734;44.792;20.482;2023-04-24T09:26:44;14.25;;;6.40;;
21152;SDS011;10734;44.792;20.482;2023-04-24T09:29:14;10.23;;;6.20;;
21152;SDS011;10734;44.792;20.482;2023-04-24T09:31:43;21.13;;;6.65;;
21152;SDS011;10734;44.792;20.482;2023-04-24T09:34:11;14.18;;;6.75;;
21152;SDS011;10734;44.792;20.482;2023-04-24T09:36:40;11.73;;;6.10;;
21152;SDS011;10734;44.792;20.482;2023-04-24T09:39:13;20.35;;;6.95;;
21152;SDS011;10734;44.792;20.482;2023-04-24T09:41:55;9.85;;;6.13;;
21152;SDS011;10734;44.792;20.482;2023-04-24T09:44:27;14.35;;;6.88;;
21152;SDS011;10734;44.792;20.482;2023-04-24T09:46:55;12.32;;;6.15;;
21152;SDS011;10734;44.792;20.482;2023-04-24T09:49:25;13.38;;;6.70;;
21152;SDS011;10734;44.792;20.482;2023-04-24T09:52:14;16.02;;;6.97;;
21152;SDS011;10734;44.792;20.482;2023-04-24T09:54:41;14.27;;;7.22;;
21152;SDS011;10734;44.792;20.482;2023-04-24T09:57:08;17.60;;;6.25;;
21152;SDS011;10734;44.792;20.482;2023-04-24T09:59:35;10.30;;;6.28;;
21152;SDS011;10734;44.792;20.482;2023-04-24T10:02:19;11.40;;;6.65;;
21152;SDS011;10734;44.792;20.482;2023-04-24T10:04:54;12.75;;;5.60;;
21152;SDS011;10734;44.792;20.482;2023-04-24T10:07:25;7.13;;;5.00;;
21152;SDS011;10734;44.792;20.482;2023-04-24T10:09:52;17.17;;;6.47;;
21152;SDS011;10734;44.792;20.482;2023-04-24T10:12:20;17.48;;;7.18;;
21152;SDS011;10734;44.792;20.482;2023-04-24T10:14:54;24.77;;;8.48;;
21152;SDS011;10734;44.792;20.482;2023-04-24T10:17:21;16.77;;;7.15;;
21152;SDS011;10734;44.792;20.482;2023-04-24T10:19:49;10.63;;;5.63;;
21152;SDS011;10734;44.792;20.482;2023-04-24T10:22:17;10.93;;;5.88;;
21152;SDS011;10734;44.792;20.482;2023-04-24T10:24:44;12.07;;;5.82;;
21152;SDS011;10734;44.792;20.482;2023-04-24T10:27:13;16.02;;;6.72;;
21152;SDS011;10734;44.792;20.482;2023-04-24T10:29:41;14.57;;;7.20;;
21152;SDS011;10734;44.792;20.482;2023-04-24T10:32:10;11.77;;;6.82;;
21152;SDS011;10734;44.792;20.482;2023-04-24T10:34:37;17.83;;;7.50;;
21152;SDS011;10734;44.792;20.482;2023-04-24T10:37:04;12.93;;;5.88;;
21152;SDS011;10734;44.792;20.482;2023-04-24T10:39:31;13.55;;;6.28;;
21152;SDS011;10734;44.792;20.482;2023-04-24T10:41:59;15.27;;;5.93;;
21152;SDS011;10734;44.792;20.482;2023-04-24T10:44:27;15.93;;;6.32;;
21152;SDS011;10734;44.792;20.482;2023-04-24T10:47:02;11.02;;;5.72;;
21152;SDS011;10734;44.792;20.482;2023-04-24T10:49:30;8.73;;;6.05;;
21152;SDS011;10734;44.792;20.482;2023-04-24T10:52:04;18.90;;;8.35;;
21152;SDS011;10734;44.792;20.482;2023-04-24T10:57:40;16.02;;;6.78;;
21152;SDS011;10734;44.792;20.482;2023-04-24T11:00:10;12.75;;;6.90;;
21152;SDS011;10734;44.792;20.482;2023-04-24T11:02:39;18.08;;;6.35;;
21152;SDS011;10734;44.792;20.482;2023-04-24T11:05:10;12.27;;;6.28;;
21152;SDS011;10734;44.792;20.482;2023-04-24T11:13:16;9.00;;;6.03;;
21152;SDS011;10734;44.792;20.482;2023-04-24T11:16:11;11.65;;;6.20;;
21152;SDS011;10734;44.792;20.482;2023-04-24T11:18:42;11.18;;;6.43;;
21152;SDS011;10734;44.792;20.482;2023-04-24T11:21:17;8.90;;;6.50;;
21152;SDS011;10734;44.792;20.482;2023-04-24T11:23:45;10.07;;;6.60;;
21152;SDS011;10734;44.792;20.482;2023-04-24T11:26:12;12.07;;;6.40;;
21152;SDS011;10734;44.792;20.482;2023-04-24T11:28:45;11.25;;;5.88;;
21152;SDS011;10734;44.792;20.482;2023-04-24T11:34:09;14.77;;;6.53;;
21152;SDS011;10734;44.792;20.482;2023-04-24T11:36:38;18.05;;;6.28;;
21152;SDS011;10734;44.792;20.482;2023-04-24T11:39:05;10.98;;;5.88;;
21152;SDS011;10734;44.792;20.482;2023-04-24T11:41:33;11.25;;;6.20;;
21152;SDS011;10734;44.792;20.482;2023-04-24T11:44:00;11.02;;;6.43;;
21152;SDS011;10734;44.792;20.482;2023-04-24T11:46:29;9.40;;;5.57;;
21152;SDS011;10734;44.792;20.482;2023-04-24T11:48:58;7.07;;;4.72;;
21152;SDS011;10734;44.792;20.482;2023-04-24T11:51:26;9.55;;;5.63;;
21152;SDS011;10734;44.792;20.482;2023-04-24T11:53:58;11.15;;;5.13;;
21152;SDS011;10734;44.792;20.482;2023-04-24T11:56:29;8.75;;;5.50;;
21152;SDS011;10734;44.792;20.482;2023-04-24T11:58:56;10.13;;;6.22;;
21152;SDS011;10734;44.792;20.482;2023-04-24T12:01:23;11.13;;;6.95;;
21152;SDS011;10734;44.792;20.482;2023-04-24T12:03:50;10.15;;;7.07;;
21152;SDS011;10734;44.792;20.482;2023-04-24T12:06:17;14.02;;;6.00;;
21152;SDS011;10734;44.792;20.482;2023-04-24T12:08:46;13.18;;;6.43;;
21152;SDS011;10734;44.792;20.482;2023-04-24T12:11:14;8.73;;;5.85;;
21152;SDS011;10734;44.792;20.482;2023-04-24T12:13:43;10.75;;;5.68;;
21152;SDS011;10734;44.792;20.482;2023-04-24T12:16:11;9.70;;;5.45;;
21152;SDS011;10734;44.792;20.482;2023-04-24T12:18:41;16.55;;;7.30;;
21152;SDS011;10734;44.792;20.482;2023-04-24T12:21:16;12.70;;;6.50;;
21152;SDS011;10734;44.792;20.482;2023-04-24T12:23:45;14.75;;;7.03;;
21152;SDS011;10734;44.792;20.482;2023-04-24T12:26:15;10.60;;;6.60;;
21152;SDS011;10734;44.792;20.482;2023-04-24T12:28:46;15.40;;;7.30;;
21152;SDS011;10734;44.792;20.482;2023-04-24T12:31:15;12.85;;;6.97;;
21152;SDS011;10734;44.792;20.482;2023-04-24T12:33:43;9.85;;;8.23;;
21152;SDS011;10734;44.792;20.482;2023-04-24T12:36:10;15.93;;;8.75;;
21152;SDS011;10734;44.792;20.482;2023-04-24T12:38:38;11.63;;;7.75;;
21152;SDS011;10734;44.792;20.482;2023-04-24T12:41:11;10.75;;;6.32;;
21152;SDS011;10734;44.792;20.482;2023-04-24T12:43:50;10.70;;;7.13;;
21152;SDS011;10734;44.792;20.482;2023-04-24T12:46:20;10.90;;;6.22;;
21152;SDS011;10734;44.792;20.482;2023-04-24T12:48:48;11.52;;;6.68;;
21152;SDS011;10734;44.792;20.482;2023-04-24T12:51:14;13.70;;;6.55;;
21152;SDS011;10734;44.792;20.482;2023-04-24T12:53:41;13.82;;;6.53;;
21152;SDS011;10734;44.792;20.482;2023-04-24T12:56:08;13.55;;;7.28;;
21152;SDS011;10734;44.792;20.482;2023-04-24T12:58:35;16.98;;;7.15;;
21152;SDS011;10734;44.792;20.482;2023-04-24T13:01:01;12.18;;;7.00;;
21152;SDS011;10734;44.792;20.482;2023-04-24T13:03:28;13.82;;;7.18;;
21152;SDS011;10734;44.792;20.482;2023-04-24T13:05:55;14.30;;;7.45;;
21152;SDS011;10734;44.792;20.482;2023-04-24T13:08:22;9.95;;;6.57;;
21152;SDS011;10734;44.792;20.482;2023-04-24T13:10:49;11.00;;;6.68;;
21152;SDS011;10734;44.792;20.482;2023-04-24T13:13:17;16.80;;;6.85;;
21152;SDS011;10734;44.792;20.482;2023-04-24T13:15:44;14.60;;;7.45;;
21152;SDS011;10734;44.792;20.482;2023-04-24T13:18:11;8.85;;;6.00;;
21152;SDS011;10734;44.792;20.482;2023-04-24T13:20:38;10.57;;;6.80;;
21152;SDS011;10734;44.792;20.482;2023-04-24T13:23:04;12.70;;;6.50;;
21152;SDS011;10734;44.792;20.482;2023-04-24T13:25:35;9.50;;;6.72;;
21152;SDS011;10734;44.792;20.482;2023-04-24T13:28:03;8.75;;;6.28;;
21152;SDS011;10734;44.792;20.482;2023-04-24T13:30:31;14.10;;;6.13;;
21152;SDS011;10734;44.792;20.482;2023-04-24T13:32:58;9.13;;;6.10;;
21152;SDS011;10734;44.792;20.482;2023-04-24T13:35:25;10.48;;;5.28;;
21152;SDS011;10734;44.792;20.482;2023-04-24T13:37:52;11.10;;;5.55;;
21152;SDS011;10734;44.792;20.482;2023-04-24T13:40:18;11.35;;;6.70;;
21152;SDS011;10734;44.792;20.482;2023-04-24T13:42:45;14.23;;;5.13;;
21152;SDS011;10734;44.792;20.482;2023-04-24T13:45:18;8.15;;;4.70;;
21152;SDS011;10734;44.792;20.482;2023-04-24T13:47:50;15.00;;;5.65;;
21152;SDS011;10734;44.792;20.482;2023-04-24T13:50:18;6.88;;;5.30;;
21152;SDS011;10734;44.792;20.482;2023-04-24T13:52:45;10.73;;;5.60;;
21152;SDS011;10734;44.792;20.482;2023-04-24T13:55:12;8.57;;;4.93;;
21152;SDS011;10734;44.792;20.482;2023-04-24T13:57:38;13.20;;;5.07;;
21152;SDS011;10734;44.792;20.482;2023-04-24T14:00:06;26.92;;;5.43;;
21152;SDS011;10734;44.792;20.482;2023-04-24T14:02:35;12.20;;;4.13;;
21152;SDS011;10734;44.792;20.482;2023-04-24T14:05:03;8.30;;;4.80;;
21152;SDS011;10734;44.792;20.482;2023-04-24T14:07:30;11.32;;;5.47;;
21152;SDS011;10734;44.792;20.482;2023-04-24T14:09:58;9.57;;;5.03;;
21152;SDS011;10734;44.792;20.482;2023-04-24T14:12:24;12.68;;;4.60;;
21152;SDS011;10734;44.792;20.482;2023-04-24T14:14:52;12.85;;;5.82;;
21152;SDS011;10734;44.792;20.482;2023-04-24T14:17:18;15.98;;;5.38;;
21152;SDS011;10734;44.792;20.482;2023-04-24T14:19:45;11.60;;;5.13;;
21152;SDS011;10734;44.792;20.482;2023-04-24T14:22:12;10.30;;;4.07;;
21152;SDS011;10734;44.792;20.482;2023-04-24T14:24:39;7.57;;;4.47;;
21152;SDS011;10734;44.792;20.482;2023-04-24T14:27:05;8.05;;;3.92;;
21152;SDS011;10734;44.792;20.482;2023-04-24T14:29:32;8.25;;;4.45;;
21152;SDS011;10734;44.792;20.482;2023-04-24T14:32:00;9.77;;;3.95;;
21152;SDS011;10734;44.792;20.482;2023-04-24T14:34:27;7.47;;;3.42;;
21152;SDS011;10734;44.792;20.482;2023-04-24T14:36:54;7.00;;;3.10;;
21152;SDS011;10734;44.792;20.482;2023-04-24T14:39:20;13.93;;;3.83;;